South Bend, Indiana
Current Conditions -  °F | °C
As of 10:54 PM on Wednesday 22 Oct 2014 (Local Time) from KSBN Reporting Station
Clear Clear  
Wind Chill:   Ceiling: Unl
Heat Index:   Visibility: 8mi
Dew Point:   Wind: 0mph
Humidity: 89%   Direction: NA
Pressure: 30.3"   Gusts: NA
Location:  41.68°N, 86.25°W
Report Text: KSBN 230254Z 00000KT 8SM CLR 04/02 A3030 RMK AO2 SLP264 T00390022 55000
Loading
Personal Weather Stations






























Interactive Weather Map New forecast layout! Learn more

10-Day Weather Forecast

Advertisements
Track Severe Weather on mobile